Time;durP1;ratioP1;P1;durP2;ratioP2;P2;SDS_P1;SDS_P2;PMS_P1;PMS_P2;Temp;Humidity;BMP_temperature;BMP_pressure;BME280_temperature;BME280_humidity;BME280_pressure;Samples;Min_cycle;Max_cycle;Signal;HPM_P1;HPM_P2
2022/07/18 00:02:15;;;;;;;1.77;1.00;;;;;;;17.94;46.38;102336.44;5008947;28;96737;-48
2022/07/18 00:04:41;;;;;;;0.90;0.83;;;;;;;17.89;46.36;102339.97;5005081;28;96653;-47
2022/07/18 00:07:10;;;;;;;1.10;1.00;;;;;;;17.87;46.65;102342.50;5010443;28;97575;-48
2022/07/18 00:09:36;;;;;;;1.77;0.80;;;;;;;17.88;46.40;102326.56;4998878;28;97378;-47
2022/07/18 00:12:03;;;;;;;1.20;1.10;;;;;;;17.88;46.44;102326.56;5005992;28;97619;-48
2022/07/18 00:14:28;;;;;;;1.90;0.93;;;;;;;17.86;46.60;102324.28;5004293;28;97153;-47
2022/07/18 00:16:54;;;;;;;1.27;1.17;;;;;;;17.87;46.73;102322.22;5002145;28;97344;-47
2022/07/18 00:19:19;;;;;;;0.97;0.97;;;;;;;17.88;46.87;102332.13;5005636;28;96938;-48
2022/07/18 00:21:45;;;;;;;1.10;1.00;;;;;;;17.88;46.74;102327.31;5005804;28;96929;-47
2022/07/18 00:24:11;;;;;;;1.97;0.77;;;;;;;17.87;46.92;102316.66;5008364;28;97143;-48
2022/07/18 00:26:37;;;;;;;0.97;0.90;;;;;;;17.86;47.02;102321.50;5009846;28;97346;-48
2022/07/18 00:29:02;;;;;;;1.47;1.00;;;;;;;17.84;47.01;102318.44;5015177;28;97041;-49
2022/07/18 00:31:27;;;;;;;1.10;1.10;;;;;;;17.81;46.91;102313.13;5009906;28;97034;-47
2022/07/18 00:33:53;;;;;;;0.90;0.90;;;;;;;17.78;46.95;102303.75;5010193;28;96977;-48
2022/07/18 00:36:18;;;;;;;1.20;0.80;;;;;;;17.77;47.08;102296.66;5015776;28;97475;-48
2022/07/18 00:38:44;;;;;;;1.20;1.03;;;;;;;17.73;47.22;102296.16;5013342;28;97399;-47
2022/07/18 00:41:09;;;;;;;1.30;0.97;;;;;;;17.66;47.30;102295.88;5011974;28;96886;-48
2022/07/18 00:43:34;;;;;;;1.23;1.00;;;;;;;17.60;47.31;102295.88;5008407;28;97101;-47
2022/07/18 00:46:00;;;;;;;1.73;0.80;;;;;;;17.54;47.45;102303.41;5016152;28;97070;-47
2022/07/18 00:48:25;;;;;;;2.03;0.90;;;;;;;17.49;47.58;102301.34;5011799;28;97100;-48
2022/07/18 00:50:50;;;;;;;1.00;0.90;;;;;;;17.46;47.65;102296.03;4994626;28;99990;-48
2022/07/18 00:53:16;;;;;;;1.80;1.23;;;;;;;17.41;47.61;102299.56;5008007;28;96859;-47
2022/07/18 00:55:46;;;;;;;1.03;0.83;;;;;;;17.40;48.11;102295.25;5009219;28;96807;-48
2022/07/18 00:58:13;;;;;;;1.83;1.20;;;;;;;17.33;47.86;102302.03;5009032;28;98592;-48
2022/07/18 01:03:23;;;;;;;1.00;0.90;;;;;;;17.20;48.01;102298.94;5009591;28;96915;-48
2022/07/18 01:05:48;;;;;;;1.17;0.90;;;;;;;17.18;48.10;102295.91;5012827;28;96936;-47
2022/07/18 01:08:14;;;;;;;1.40;1.20;;;;;;;17.15;48.20;102291.34;5009673;28;96993;-47
2022/07/18 01:10:39;;;;;;;2.83;1.20;;;;;;;17.11;48.27;102290.81;5010959;28;97209;-48
2022/07/18 01:13:05;;;;;;;1.20;1.00;;;;;;;17.06;48.36;102289.53;5009495;28;97023;-48
2022/07/18 01:15:30;;;;;;;3.50;1.27;;;;;;;17.01;48.48;102293.06;5009499;28;97103;-47
2022/07/18 01:17:55;;;;;;;1.23;1.00;;;;;;;16.97;48.53;102320.31;5011877;28;98532;-49
2022/07/18 01:20:21;;;;;;;1.10;1.00;;;;;;;16.96;48.43;102293.78;5009166;28;97328;-47
2022/07/18 01:22:46;;;;;;;1.23;1.13;;;;;;;16.97;48.51;102295.28;5012672;28;97486;-47
2022/07/18 01:25:14;;;;;;;1.47;1.00;;;;;;;16.96;48.55;102293.78;5008913;28;96982;-48
2022/07/18 01:27:40;;;;;;;1.80;0.97;;;;;;;16.92;48.57;102289.69;5009244;28;97205;-47
2022/07/18 01:30:06;;;;;;;2.40;1.20;;;;;;;16.92;48.56;102289.69;5011993;28;97062;-47
2022/07/18 01:32:32;;;;;;;0.90;0.90;;;;;;;16.89;48.53;102285.13;5012575;28;96921;-48
2022/07/18 01:34:57;;;;;;;2.03;1.47;;;;;;;16.82;48.69;102294.69;5010323;28;97028;-48
2022/07/18 01:37:23;;;;;;;1.33;0.70;;;;;;;16.80;48.83;102293.66;5012090;28;97362;-47
2022/07/18 01:39:48;;;;;;;1.30;1.00;;;;;;;16.80;48.85;102285.31;5007055;28;97104;-48
2022/07/18 01:42:15;;;;;;;1.30;1.20;;;;;;;16.78;48.96;102290.63;5008754;28;97043;-47
2022/07/18 01:44:41;;;;;;;1.07;1.07;;;;;;;16.72;49.05;102293.38;5005585;28;96961;-47
2022/07/18 01:47:08;;;;;;;0.90;0.80;;;;;;;16.62;49.08;102289.25;5011522;28;97580;-47
2022/07/18 01:49:34;;;;;;;1.57;1.37;;;;;;;16.56;49.10;102282.88;5005902;28;97135;-47
2022/07/18 01:52:00;;;;;;;1.07;0.97;;;;;;;16.56;49.20;102277.31;5009991;28;96980;-47
2022/07/18 01:54:30;;;;;;;2.07;1.10;;;;;;;16.56;49.14;102280.09;5008277;28;96880;-47
2022/07/18 01:56:56;;;;;;;2.50;1.33;;;;;;;16.52;49.19;102278.81;5003023;28;97363;-47
2022/07/18 01:59:23;;;;;;;2.67;1.23;;;;;;;16.49;49.19;102278.50;5007869;28;96748;-47
2022/07/18 02:01:48;;;;;;;4.83;1.27;;;;;;;16.48;49.17;102279.78;5007536;28;97071;-48
2022/07/18 02:04:14;;;;;;;1.40;1.00;;;;;;;16.46;49.27;102279.53;5013190;28;96977;-48
2022/07/18 02:06:39;;;;;;;0.87;0.87;;;;;;;16.41;49.33;102280.22;5009119;28;96709;-47
2022/07/18 02:09:06;;;;;;;1.27;1.17;;;;;;;16.40;49.31;102269.63;5008385;28;98078;-47
2022/07/18 02:11:32;;;;;;;2.40;1.40;;;;;;;16.36;49.46;102257.94;5010933;28;97515;-47
2022/07/18 02:13:58;;;;;;;1.17;1.07;;;;;;;16.31;49.43;102255.91;5001393;28;96992;-47
2022/07/18 02:16:23;;;;;;;1.10;1.00;;;;;;;16.27;49.54;102260.94;5006775;28;96855;-47
2022/07/18 02:18:48;;;;;;;1.07;0.97;;;;;;;16.20;49.63;102259.38;5007660;28;97198;-48
2022/07/18 02:21:14;;;;;;;1.83;1.00;;;;;;;16.18;49.58;102258.31;5006753;28;97056;-47
2022/07/18 02:23:40;;;;;;;1.13;1.10;;;;;;;16.16;49.72;102256.03;5008997;28;96903;-48
2022/07/18 02:26:06;;;;;;;1.23;1.00;;;;;;;16.19;49.80;102255.06;5004698;28;97096;-50
2022/07/18 02:28:31;;;;;;;1.40;1.30;;;;;;;16.17;49.63;102260.34;5004428;28;98014;-49
2022/07/18 02:30:57;;;;;;;1.83;1.20;;;;;;;16.16;49.71;102258.81;5007725;28;97015;-47
2022/07/18 02:33:22;;;;;;;1.67;0.80;;;;;;;16.10;49.78;102255.22;5009246;28;96798;-47
2022/07/18 02:35:47;;;;;;;0.90;0.87;;;;;;;16.08;49.84;102257.72;5008106;28;97355;-49
2022/07/18 02:38:13;;;;;;;2.17;1.33;;;;;;;16.06;49.76;102251.13;5005638;28;96858;-48
2022/07/18 02:40:38;;;;;;;1.43;1.10;;;;;;;16.03;49.83;102246.59;5006889;28;97101;-48
2022/07/18 02:43:04;;;;;;;1.83;1.27;;;;;;;16.02;49.78;102250.59;5002480;28;96925;-47
2022/07/18 02:45:30;;;;;;;1.23;1.23;;;;;;;15.99;49.87;102252.34;5004805;28;97097;-47
2022/07/18 02:47:55;;;;;;;2.50;1.10;;;;;;;15.97;50.01;102246.53;5004547;28;97774;-47
2022/07/18 02:50:21;;;;;;;1.47;1.17;;;;;;;15.93;50.02;102257.09;5003991;28;97213;-48
2022/07/18 02:52:46;;;;;;;1.60;1.30;;;;;;;15.91;50.04;102259.59;5003842;28;96757;-47
2022/07/18 02:55:13;;;;;;;1.47;1.10;;;;;;;15.90;50.14;102258.06;5008273;28;97521;-48
2022/07/18 02:57:39;;;;;;;1.40;1.30;;;;;;;15.87;50.07;102259.06;5004807;28;100421;-48
2022/07/18 03:00:14;;;;;;;1.33;1.20;;;;;;;15.87;50.63;102266.63;5008116;28;97191;-48
2022/07/18 03:02:40;;;;;;;1.17;0.73;;;;;;;15.82;50.11;102273.63;5005844;28;96967;-49
2022/07/18 03:05:05;;;;;;;1.50;1.50;;;;;;;15.79;50.25;102262.75;5013484;28;97418;-47
2022/07/18 03:07:31;;;;;;;3.47;1.03;;;;;;;15.77;50.20;102256.94;5008188;28;97107;-47
2022/07/18 03:09:56;;;;;;;1.53;1.03;;;;;;;15.73;50.34;102257.13;5005017;28;97282;-48
2022/07/18 03:12:22;;;;;;;1.73;1.10;;;;;;;15.74;50.49;102261.44;5007966;28;96797;-48
2022/07/18 03:14:47;;;;;;;1.30;1.00;;;;;;;15.76;50.43;102258.94;5003597;28;97166;-47
2022/07/18 03:17:13;;;;;;;1.87;1.47;;;;;;;15.74;50.38;102251.13;5004082;28;97104;-47
2022/07/18 03:19:38;;;;;;;1.07;1.03;;;;;;;15.71;50.36;102257.63;5005727;28;97326;-47
2022/07/18 03:22:04;;;;;;;0.97;0.97;;;;;;;15.70;50.58;102245.00;5002786;28;97502;-47
2022/07/18 03:24:30;;;;;;;1.10;1.00;;;;;;;15.67;50.58;102239.69;5007740;28;97303;-47
2022/07/18 03:26:56;;;;;;;3.80;1.20;;;;;;;15.66;50.57;102249.25;5003650;28;97272;-47
2022/07/18 03:29:21;;;;;;;3.00;1.20;;;;;;;15.63;50.59;102259.31;5004149;28;97343;-47
2022/07/18 03:31:47;;;;;;;1.50;1.40;;;;;;;15.60;50.56;102246.41;5006568;28;97356;-50
2022/07/18 03:34:12;;;;;;;0.90;0.90;;;;;;;15.54;50.67;102248.38;5003163;28;97005;-47
2022/07/18 03:36:38;;;;;;;1.57;1.47;;;;;;;15.54;50.81;102255.94;5007126;28;97301;-48
2022/07/18 03:39:04;;;;;;;1.93;1.10;;;;;;;15.52;50.75;102244.56;5006739;28;97356;-49
2022/07/18 03:41:30;;;;;;;1.10;1.00;;;;;;;15.49;50.83;102251.84;4998998;28;97011;-48
2022/07/18 03:43:55;;;;;;;0.97;0.97;;;;;;;15.47;50.72;102245.25;5005991;28;97188;-49
2022/07/18 03:46:21;;;;;;;1.37;1.10;;;;;;;15.44;50.89;102246.25;5000083;28;103359;-47
2022/07/18 03:48:46;;;;;;;1.23;1.13;;;;;;;15.41;50.99;102247.19;5009112;28;96925;-48
2022/07/18 03:51:13;;;;;;;1.00;0.90;;;;;;;15.41;50.92;102250.72;5003974;28;97484;-48
2022/07/18 03:53:38;;;;;;;1.63;1.10;;;;;;;15.40;50.92;102240.88;5006831;28;97421;-48
2022/07/18 03:56:04;;;;;;;0.80;0.80;;;;;;;15.38;50.97;102245.38;5003089;28;97058;-47
2022/07/18 03:58:29;;;;;;;1.40;1.40;;;;;;;15.35;50.83;102238.03;5001471;28;97413;-47
2022/07/18 04:00:55;;;;;;;1.20;1.20;;;;;;;15.31;51.05;102234.72;5003252;28;96978;-47
2022/07/18 04:03:20;;;;;;;1.00;1.00;;;;;;;15.29;51.20;102234.44;5002073;28;97955;-48
2022/07/18 04:05:45;;;;;;;1.00;1.00;;;;;;;15.30;51.37;102235.97;5003858;28;97207;-47
2022/07/18 04:08:11;;;;;;;1.50;1.37;;;;;;;15.29;51.24;102245.53;5006035;28;96938;-47
2022/07/18 04:10:39;;;;;;;1.00;1.00;;;;;;;15.27;51.24;102245.25;4993830;28;97364;-47
2022/07/18 04:13:06;;;;;;;0.90;0.90;;;;;;;15.25;51.30;102239.41;4997013;28;97429;-48
2022/07/18 04:15:31;;;;;;;1.00;0.90;;;;;;;15.23;51.28;102236.38;4998701;28;98951;-48
2022/07/18 04:17:57;;;;;;;1.17;1.07;;;;;;;15.21;51.46;102241.66;4998963;28;96822;-48
2022/07/18 04:20:22;;;;;;;1.90;1.20;;;;;;;15.22;51.49;102243.19;5004001;28;96817;-47
2022/07/18 04:22:55;;;;;;;4.20;1.30;;;;;;;15.20;51.44;102243.66;5002482;28;97239;-47
2022/07/18 04:25:24;;;;;;;1.13;1.00;;;;;;;15.20;51.58;102231.81;5001561;28;98423;-48
2022/07/18 04:27:51;;;;;;;1.00;0.90;;;;;;;15.19;51.50;102227.50;5002258;28;96661;-47
2022/07/18 04:30:20;;;;;;;1.60;1.47;;;;;;;15.18;51.65;102220.44;5002229;28;96968;-47
2022/07/18 04:32:45;;;;;;;1.33;1.10;;;;;;;15.19;51.62;102224.72;5001688;28;97383;-47
2022/07/18 04:35:11;;;;;;;1.23;1.10;;;;;;;15.19;51.72;102225.50;5005852;28;97223;-48
2022/07/18 04:37:38;;;;;;;1.40;0.97;;;;;;;15.23;51.70;102231.59;5005463;28;97435;-48
2022/07/18 04:40:05;;;;;;;1.20;1.10;;;;;;;15.28;51.66;102225.34;5004115;28;97114;-48
2022/07/18 04:42:30;;;;;;;0.87;0.87;;;;;;;15.27;51.77;102218.28;5002479;28;99014;-48
2022/07/18 04:44:57;;;;;;;1.00;1.00;;;;;;;15.28;51.78;102224.59;4998570;28;97172;-48
2022/07/18 04:47:22;;;;;;;1.47;1.30;;;;;;;15.27;51.83;102220.28;5007335;28;96710;-48
2022/07/18 04:49:47;;;;;;;1.00;1.00;;;;;;;15.25;51.83;102222.78;5004585;28;96915;-47
2022/07/18 04:52:13;;;;;;;1.27;1.17;;;;;;;15.24;51.99;102227.59;5007713;28;97218;-47
2022/07/18 04:54:38;;;;;;;2.30;1.10;;;;;;;15.28;51.95;102221.81;4998561;28;97364;-48
2022/07/18 04:57:03;;;;;;;1.10;1.00;;;;;;;15.32;52.04;102219.59;5000885;28;97109;-47
2022/07/18 04:59:29;;;;;;;1.20;1.10;;;;;;;15.35;52.02;102218.63;5003666;28;96835;-48
2022/07/18 05:01:54;;;;;;;1.30;1.20;;;;;;;15.37;52.02;102208.56;5003983;28;97266;-47
2022/07/18 05:04:19;;;;;;;1.63;1.33;;;;;;;15.43;52.15;102211.41;5002819;28;97044;-47
2022/07/18 05:06:45;;;;;;;0.70;0.70;;;;;;;15.48;52.03;102207.97;5008865;28;97325;-49
2022/07/18 05:09:10;;;;;;;1.33;1.13;;;;;;;15.52;52.09;102202.94;5010384;27;97080;-47
2022/07/18 05:11:35;;;;;;;0.90;0.90;;;;;;;15.58;52.08;102215.63;4995866;28;100289;-47
2022/07/18 05:14:01;;;;;;;0.83;0.83;;;;;;;15.65;52.13;102215.19;5006705;28;96856;-47
2022/07/18 05:16:26;;;;;;;1.13;1.03;;;;;;;15.77;52.24;102216.81;5009889;28;97163;-47
2022/07/18 05:18:51;;;;;;;0.83;0.83;;;;;;;15.90;52.27;102210.88;5005767;28;97315;-48
2022/07/18 05:21:17;;;;;;;2.10;1.10;;;;;;;16.03;52.17;102208.47;5005385;28;96828;-47
2022/07/18 05:23:42;;;;;;;0.90;0.90;;;;;;;16.19;52.16;102205.06;5009222;28;98709;-47
2022/07/18 05:26:07;;;;;;;0.97;0.97;;;;;;;16.35;52.16;102207.22;5008957;28;97087;-49
2022/07/18 05:28:33;;;;;;;2.60;1.07;;;;;;;16.49;52.10;102211.06;5006630;28;97431;-47
2022/07/18 05:30:58;;;;;;;2.97;0.90;;;;;;;16.65;52.03;102210.44;5007812;28;99417;-47
2022/07/18 05:33:24;;;;;;;0.90;0.90;;;;;;;16.77;51.91;102208.50;5005254;28;101748;-47
2022/07/18 05:35:49;;;;;;;0.73;0.70;;;;;;;16.88;51.97;102211.34;5004869;28;97278;-47
2022/07/18 05:38:15;;;;;;;0.80;0.80;;;;;;;16.97;51.87;102217.41;5009113;28;96999;-48
2022/07/18 05:40:40;;;;;;;2.13;1.20;;;;;;;17.09;51.90;102221.78;5005213;28;97143;-47
2022/07/18 05:43:06;;;;;;;1.37;1.00;;;;;;;17.16;52.08;102214.97;5006379;28;97272;-47
2022/07/18 05:45:31;;;;;;;1.40;1.20;;;;;;;17.24;52.03;102210.44;5009308;28;96747;-47
2022/07/18 05:47:56;;;;;;;3.87;1.90;;;;;;;17.29;51.91;102211.72;5004044;28;97106;-47
2022/07/18 05:50:23;;;;;;;1.77;1.67;;;;;;;17.33;51.98;102217.81;5012747;28;97397;-48
2022/07/18 05:52:48;;;;;;;3.93;1.20;;;;;;;17.41;52.15;102219.59;5001841;28;97570;-47
2022/07/18 05:55:14;;;;;;;5.67;1.57;;;;;;;17.51;52.15;102207.03;5010975;28;96997;-48
2022/07/18 05:57:39;;;;;;;30.73;3.07;;;;;;;17.62;51.96;102203.50;5004955;28;97220;-48
2022/07/18 06:00:07;;;;;;;70.67;5.83;;;;;;;17.74;52.08;102203.00;5005082;28;97401;-48
2022/07/18 06:02:33;;;;;;;81.33;7.93;;;;;;;17.88;51.96;102199.22;5004871;28;96830;-48
2022/07/18 06:04:59;;;;;;;75.97;8.23;;;;;;;18.05;52.00;102204.03;5005547;28;96800;-50
2022/07/18 06:07:24;;;;;;;75.50;8.47;;;;;;;18.25;52.04;102198.19;5002962;28;97577;-48
2022/07/18 06:09:50;;;;;;;46.20;5.47;;;;;;;18.43;51.98;102198.44;5007177;28;97295;-48
2022/07/18 06:12:15;;;;;;;26.43;3.70;;;;;;;18.61;51.89;102200.66;5005234;28;97438;-48
2022/07/18 06:14:40;;;;;;;16.03;3.00;;;;;;;18.79;51.84;102184.66;5003329;28;97298;-48
2022/07/18 06:17:06;;;;;;;8.70;1.70;;;;;;;18.96;51.89;102186.09;5005422;28;97246;-48
2022/07/18 06:19:31;;;;;;;2.97;1.03;;;;;;;19.15;51.40;102183.50;5004334;28;97507;-48
2022/07/18 06:21:57;;;;;;;3.30;1.37;;;;;;;19.35;51.43;102194.31;5003805;28;97147;-48
2022/07/18 06:24:22;;;;;;;2.30;1.03;;;;;;;19.54;51.10;102194.44;5003448;28;97151;-49
2022/07/18 06:26:49;;;;;;;1.20;1.10;;;;;;;19.70;50.94;102185.19;5004175;28;97005;-49
2022/07/18 06:29:15;;;;;;;1.77;0.70;;;;;;;19.85;51.03;102180.00;5003619;28;97126;-48
2022/07/18 06:31:40;;;;;;;1.43;1.00;;;;;;;19.98;50.92;102180.16;5003762;28;97202;-48
2022/07/18 06:34:06;;;;;;;1.97;1.17;;;;;;;20.13;50.58;102183.31;5009833;28;97333;-48
2022/07/18 06:36:31;;;;;;;1.37;1.10;;;;;;;20.28;50.49;102180.91;5003298;28;97193;-48
2022/07/18 06:38:57;;;;;;;1.93;1.00;;;;;;;20.41;50.45;102181.03;5008729;28;97168;-48
2022/07/18 06:41:22;;;;;;;1.50;1.17;;;;;;;20.52;50.52;102175.31;5005026;28;97194;-48
2022/07/18 06:43:47;;;;;;;1.27;1.00;;;;;;;20.65;50.12;102177.47;5003493;28;97129;-48
2022/07/18 06:46:13;;;;;;;2.30;1.03;;;;;;;20.76;50.11;102178.09;5006915;28;97154;-48
2022/07/18 06:48:38;;;;;;;2.20;0.80;;;;;;;20.86;49.94;102170.06;5002167;28;97021;-49
2022/07/18 06:51:05;;;;;;;1.30;1.20;;;;;;;21.00;49.57;102184.91;5007118;28;97221;-48
2022/07/18 06:53:31;;;;;;;2.10;1.13;;;;;;;21.10;49.55;102170.03;5002518;28;97028;-48
2022/07/18 06:55:57;;;;;;;2.40;1.20;;;;;;;21.20;49.51;102170.44;5006841;28;96901;-48
2022/07/18 06:58:23;;;;;;;1.17;1.07;;;;;;;21.35;49.50;102167.91;5004621;28;96874;-48
2022/07/18 07:00:49;;;;;;;1.43;1.27;;;;;;;21.50;49.09;102165.41;4996256;28;110068;-48
2022/07/18 07:03:15;;;;;;;1.47;1.37;;;;;;;21.67;48.71;102171.47;4998224;28;97473;-48
2022/07/18 07:05:40;;;;;;;4.00;1.00;;;;;;;21.79;48.12;102170.03;5003731;28;104564;-48
2022/07/18 07:08:06;;;;;;;1.67;1.53;;;;;;;21.92;47.97;102175.69;5002981;28;98342;-48
2022/07/18 07:10:31;;;;;;;2.60;1.00;;;;;;;22.05;47.82;102177.78;5001559;28;97198;-48
2022/07/18 07:12:56;;;;;;;1.30;1.20;;;;;;;22.17;47.69;102167.88;5005110;28;97461;-47
2022/07/18 07:15:23;;;;;;;1.20;1.00;;;;;;;22.25;47.41;102169.50;5004727;28;97034;-48
2022/07/18 07:17:49;;;;;;;1.67;1.10;;;;;;;22.38;47.36;102172.31;5000448;28;97128;-48
2022/07/18 07:20:18;;;;;;;1.00;0.90;;;;;;;22.46;46.91;102166.03;5001844;28;96996;-48
2022/07/18 07:22:50;;;;;;;1.63;0.80;;;;;;;22.55;46.78;102168.44;5001591;28;97040;-49
2022/07/18 07:25:17;;;;;;;2.00;1.07;;;;;;;22.69;46.39;102181.19;5004491;28;96863;-48
2022/07/18 07:27:43;;;;;;;1.03;0.90;;;;;;;22.80;46.20;102169.75;5003043;28;96984;-49
2022/07/18 07:30:10;;;;;;;1.33;1.23;;;;;;;22.87;46.36;102167.03;5005137;28;97150;-47
2022/07/18 07:32:42;;;;;;;1.60;0.83;;;;;;;22.95;45.65;102167.13;5001472;28;97135;-48
2022/07/18 07:35:11;;;;;;;1.43;0.83;;;;;;;23.01;45.87;102164.94;5004051;28;97079;-48
2022/07/18 07:37:37;;;;;;;1.50;1.10;;;;;;;23.13;45.77;102166.97;5001846;28;97961;-48
2022/07/18 07:40:03;;;;;;;2.03;0.83;;;;;;;23.26;45.10;102149.34;5003505;28;97428;-48
2022/07/18 07:42:28;;;;;;;1.73;0.90;;;;;;;23.37;44.55;102151.88;5004020;28;96994;-48
2022/07/18 07:44:54;;;;;;;0.90;0.80;;;;;;;23.47;44.36;102164.19;5004280;28;101636;-48
2022/07/18 07:47:19;;;;;;;1.10;0.70;;;;;;;23.55;44.16;102164.25;5002183;28;97533;-48
2022/07/18 07:49:45;;;;;;;2.40;0.80;;;;;;;23.65;44.48;102156.84;5006404;28;96889;-48
2022/07/18 07:52:13;;;;;;;1.60;1.00;;;;;;;23.71;44.05;102149.78;5002844;28;97170;-48
2022/07/18 07:54:39;;;;;;;1.27;0.97;;;;;;;23.79;43.54;102150.59;4985831;28;96999;-48
2022/07/18 07:57:04;;;;;;;0.70;0.60;;;;;;;23.91;43.08;102159.53;5004532;28;97150;-48
2022/07/18 07:59:31;;;;;;;1.30;0.70;;;;;;;24.02;42.73;102152.84;5004118;28;96891;-48
2022/07/18 08:01:57;;;;;;;3.73;1.10;;;;;;;24.12;42.94;102160.25;5004631;28;97387;-48
2022/07/18 08:04:23;;;;;;;1.20;1.10;;;;;;;24.22;42.58;102164.06;5003587;28;96701;-48
2022/07/18 08:06:48;;;;;;;1.07;0.80;;;;;;;24.35;42.27;102160.44;5004267;28;98450;-49
2022/07/18 08:09:13;;;;;;;0.80;0.60;;;;;;;24.47;42.04;102167.25;5005816;28;97129;-48
2022/07/18 08:11:39;;;;;;;1.00;0.73;;;;;;;24.58;41.81;102147.22;5002886;28;97527;-48
2022/07/18 08:14:04;;;;;;;1.77;1.13;;;;;;;24.65;41.64;102149.34;5003460;28;96787;-48
2022/07/18 08:16:30;;;;;;;1.23;0.90;;;;;;;24.71;41.75;102137.91;5003076;28;97118;-48
2022/07/18 08:18:55;;;;;;;2.00;0.97;;;;;;;24.76;41.28;102134.22;5006564;28;97008;-49
2022/07/18 08:21:20;;;;;;;1.73;0.77;;;;;;;24.86;40.84;102132.34;5003642;28;97076;-48
2022/07/18 08:23:47;;;;;;;0.77;0.73;;;;;;;24.98;41.22;102137.13;5003243;28;97105;-48
2022/07/18 08:26:13;;;;;;;1.80;0.73;;;;;;;25.10;41.14;102137.50;5003364;28;97185;-48
2022/07/18 08:28:39;;;;;;;1.00;0.60;;;;;;;25.23;41.00;102146.56;5002348;28;97255;-48
2022/07/18 08:31:04;;;;;;;1.57;1.07;;;;;;;25.34;40.46;102133.47;5004038;28;97344;-48
2022/07/18 08:33:29;;;;;;;0.80;0.53;;;;;;;25.47;40.05;102134.03;5003385;28;97662;-48
2022/07/18 08:35:55;;;;;;;1.30;0.70;;;;;;;25.61;39.82;102140.25;5004977;28;97727;-49
2022/07/18 08:38:20;;;;;;;2.20;0.60;;;;;;;25.72;39.85;102123.75;5007375;28;98490;-48
2022/07/18 08:40:47;;;;;;;0.80;0.77;;;;;;;25.86;39.73;102125.03;5003832;28;97151;-47
2022/07/18 08:43:14;;;;;;;1.87;1.20;;;;;;;25.96;39.09;102131.63;5000806;28;96852;-48
2022/07/18 08:45:42;;;;;;;2.33;0.73;;;;;;;26.02;38.91;102137.06;5004564;28;97828;-48
2022/07/18 08:48:07;;;;;;;1.47;0.77;;;;;;;26.09;38.72;102141.97;5004220;28;97527;-48
2022/07/18 08:50:33;;;;;;;1.80;0.93;;;;;;;26.23;38.74;102137.63;5006825;28;97034;-49
2022/07/18 08:52:59;;;;;;;3.53;0.70;;;;;;;26.37;38.32;102136.09;5006354;28;97041;-53
2022/07/18 08:55:24;;;;;;;1.00;0.87;;;;;;;26.53;38.23;102136.78;5006094;28;97673;-48
2022/07/18 08:57:50;;;;;;;2.07;1.23;;;;;;;26.65;37.86;102132.22;5008477;28;97498;-48
2022/07/18 09:00:16;;;;;;;1.37;1.10;;;;;;;26.73;37.55;102128.06;5005015;28;96924;-48
2022/07/18 09:02:42;;;;;;;3.07;0.90;;;;;;;26.85;37.40;102124.81;5005702;28;96940;-49
2022/07/18 09:05:17;;;;;;;1.73;0.70;;;;;;;26.98;36.16;102125.31;5005604;28;97436;-48
2022/07/18 09:07:43;;;;;;;1.53;0.97;;;;;;;27.14;36.79;102118.28;5005360;28;101673;-48
2022/07/18 09:10:08;;;;;;;1.30;0.80;;;;;;;27.23;36.36;102112.00;5009124;28;97233;-48
2022/07/18 09:12:33;;;;;;;1.10;0.90;;;;;;;27.37;36.29;102121.72;5009130;28;97112;-48
2022/07/18 09:15:07;;;;;;;0.77;0.60;;;;;;;27.58;35.58;102107.25;5005070;28;101960;-48
2022/07/18 09:17:34;;;;;;;1.00;0.83;;;;;;;27.78;36.17;102097.66;5004688;28;97183;-48
2022/07/18 09:20:08;;;;;;;2.20;0.80;;;;;;;27.97;35.24;102097.06;5004607;28;97256;-48
2022/07/18 09:22:39;;;;;;;1.30;0.93;;;;;;;28.09;34.95;102087.53;5003825;28;96971;-48
2022/07/18 09:25:11;;;;;;;1.43;0.90;;;;;;;28.20;34.49;102089.13;5005827;28;98533;-48
2022/07/18 09:27:50;;;;;;;0.90;0.70;;;;;;;28.33;34.72;102090.88;5003283;28;97242;-48
2022/07/18 09:30:32;;;;;;;1.57;1.20;;;;;;;28.43;33.13;102083.94;5007193;28;97050;-48
2022/07/18 09:33:03;;;;;;;1.33;1.23;;;;;;;28.55;33.42;102093.41;5003400;28;97089;-48
2022/07/18 09:35:33;;;;;;;1.20;1.10;;;;;;;28.68;34.21;102095.19;5005501;28;101725;-48
2022/07/18 09:38:05;;;;;;;0.83;0.80;;;;;;;28.73;33.51;102088.50;5008039;28;98240;-48
2022/07/18 09:40:33;;;;;;;1.20;1.20;;;;;;;28.81;33.33;102084.22;5004675;28;97234;-48
2022/07/18 09:43:01;;;;;;;3.10;1.57;;;;;;;28.96;33.00;102080.44;5004176;28;98606;-48
2022/07/18 09:45:31;;;;;;;1.57;1.30;;;;;;;29.08;32.88;102080.63;5006036;28;97174;-48
2022/07/18 09:48:01;;;;;;;1.50;1.33;;;;;;;29.21;32.10;102080.28;5006692;28;97123;-49
2022/07/18 09:50:30;;;;;;;1.10;1.00;;;;;;;29.33;32.29;102081.97;5005548;28;97316;-49
2022/07/18 09:53:11;;;;;;;1.60;1.50;;;;;;;29.49;31.26;102086.06;5000633;28;96815;-49
2022/07/18 09:55:47;;;;;;;6.43;1.23;;;;;;;29.70;31.74;102085.53;5002129;28;96794;-48
2022/07/18 09:58:15;;;;;;;1.73;1.63;;;;;;;29.86;31.98;102086.75;5004579;28;97088;-48
2022/07/18 10:00:41;;;;;;;1.63;1.20;;;;;;;29.96;31.57;102087.53;5001473;28;97760;-49
2022/07/18 10:03:07;;;;;;;1.60;1.50;;;;;;;30.02;31.40;102087.22;5004564;28;96837;-48
2022/07/18 10:05:38;;;;;;;1.57;1.47;;;;;;;30.08;31.15;102087.66;5005675;28;97244;-49
2022/07/18 10:08:07;;;;;;;2.67;1.33;;;;;;;30.07;30.96;102080.50;5008545;28;97076;-48
2022/07/18 10:10:33;;;;;;;1.93;1.57;;;;;;;30.14;31.38;102079.63;5000426;28;98065;-48
2022/07/18 10:13:00;;;;;;;2.80;1.80;;;;;;;30.16;30.96;102072.00;5005401;28;96999;-48
2022/07/18 10:15:28;;;;;;;1.80;1.53;;;;;;;30.20;31.02;102074.41;5006789;28;97546;-48
2022/07/18 10:17:54;;;;;;;1.40;1.30;;;;;;;30.27;30.85;102076.34;5001408;28;97877;-48
2022/07/18 10:20:29;;;;;;;1.97;1.77;;;;;;;30.34;30.08;102072.59;5005139;28;97021;-48
2022/07/18 10:22:57;;;;;;;3.77;1.60;;;;;;;30.40;30.64;102069.47;5006395;28;97073;-48
2022/07/18 10:25:23;;;;;;;1.67;1.57;;;;;;;30.49;30.49;102065.88;5004174;28;97562;-49
2022/07/18 10:28:15;;;;;;;2.10;1.67;;;;;;;30.59;29.44;102066.59;5004303;28;97317;-49
2022/07/18 10:30:49;;;;;;;2.00;1.50;;;;;;;30.72;29.96;102066.88;4999039;28;98925;-48
2022/07/18 10:33:38;;;;;;;3.30;2.20;;;;;;;30.82;29.56;102061.91;5002558;28;97366;-48
2022/07/18 10:36:15;;;;;;;1.77;1.50;;;;;;;30.81;29.18;102062.50;5005165;28;101772;-49
2022/07/18 10:39:06;;;;;;;1.57;1.47;;;;;;;30.85;29.53;102051.41;5004219;28;98833;-48
2022/07/18 10:41:32;;;;;;;1.27;1.17;;;;;;;30.89;30.12;102057.41;5004600;28;97354;-48
2022/07/18 10:43:57;;;;;;;1.20;1.10;;;;;;;30.97;29.90;102058.00;5004436;28;96992;-49
2022/07/18 10:46:22;;;;;;;2.90;1.50;;;;;;;31.04;29.96;102060.66;5004503;28;106254;-48
2022/07/18 10:48:50;;;;;;;2.60;1.03;;;;;;;31.05;29.84;102050.78;5005038;28;96857;-49
2022/07/18 10:51:16;;;;;;;1.20;1.10;;;;;;;31.09;29.23;102047.47;5004299;28;96721;-48
2022/07/18 10:53:59;;;;;;;1.50;1.40;;;;;;;31.15;29.15;102050.72;5004269;28;96743;-49
2022/07/18 10:56:28;;;;;;;1.20;1.00;;;;;;;31.24;29.20;102057.72;5000561;28;101957;-48
2022/07/18 10:58:57;;;;;;;1.37;1.27;;;;;;;31.36;29.04;102050.03;5003295;28;97124;-50
2022/07/18 11:01:24;;;;;;;3.00;1.67;;;;;;;31.43;28.77;102046.28;5001542;28;97077;-48
2022/07/18 11:04:10;;;;;;;1.43;1.33;;;;;;;31.52;28.84;102054.03;5003899;28;97222;-48
2022/07/18 11:07:05;;;;;;;1.80;1.70;;;;;;;31.55;28.46;102045.00;5003369;28;101935;-49
2022/07/18 11:09:40;;;;;;;2.10;1.77;;;;;;;31.54;28.28;102037.81;5001942;28;101595;-49
2022/07/18 11:12:29;;;;;;;2.00;1.80;;;;;;;31.58;27.76;102038.13;5005442;28;97052;-48
2022/07/18 11:15:10;;;;;;;1.67;1.30;;;;;;;31.69;27.54;102034.56;5001019;28;96995;-48
2022/07/18 11:17:51;;;;;;;2.03;1.53;;;;;;;31.78;28.00;102028.06;5002785;28;100399;-48
2022/07/18 11:20:42;;;;;;;2.17;1.40;;;;;;;31.84;27.19;102036.28;5003638;28;97050;-48
2022/07/18 11:23:18;;;;;;;1.87;1.77;;;;;;;31.97;26.75;102029.31;5000773;28;97057;-48
2022/07/18 11:25:45;;;;;;;1.77;1.67;;;;;;;32.05;27.57;102016.34;5003472;28;96964;-49
2022/07/18 11:28:11;;;;;;;2.30;1.83;;;;;;;32.16;27.60;102023.44;5002497;28;97474;-49